Time;durP1;ratioP1;P1;durP2;ratioP2;P2;SDS_P1;SDS_P2;PMS_P1;PMS_P2;Temp;Humidity;BMP_temperature;BMP_pressure;BME280_temperature;BME280_humidity;BME280_pressure;Samples;Min_cycle;Max_cycle;Signal;HPM_P1;HPM_P2
2023/01/08 00:01:15;;;;;;;4.47;2.53;;;10.80;1.00;;;;;;4842008;29;20618;-66
2023/01/08 00:03:42;;;;;;;5.20;2.47;;;10.80;1.00;;;;;;4856200;29;20202;-68
2023/01/08 00:06:13;;;;;;;4.10;2.37;;;10.90;1.00;;;;;;4857153;29;20626;-70
2023/01/08 00:08:41;;;;;;;3.70;2.70;;;10.80;1.00;;;;;;4857635;29;20230;-72
2023/01/08 00:11:09;;;;;;;3.77;2.60;;;10.80;1.00;;;;;;4857673;29;20214;-69
2023/01/08 00:13:37;;;;;;;4.23;2.43;;;10.80;1.00;;;;;;4857112;29;20604;-68
2023/01/08 00:16:07;;;;;;;2.97;2.60;;;10.80;1.00;;;;;;4857036;29;20213;-68
2023/01/08 00:18:34;;;;;;;7.33;2.30;;;10.80;1.00;;;;;;4858494;29;20206;-67
2023/01/08 00:21:01;;;;;;;2.67;2.43;;;10.80;1.00;;;;;;4855855;29;20190;-66
2023/01/08 00:23:28;;;;;;;2.80;2.50;;;10.80;1.00;;;;;;4858642;29;20203;-68
2023/01/08 00:25:55;;;;;;;4.07;2.80;;;10.80;1.00;;;;;;4863882;29;20201;-66
2023/01/08 00:28:22;;;;;;;4.63;2.80;;;10.80;1.00;;;;;;4854454;29;20206;-67
2023/01/08 00:30:49;;;;;;;2.83;2.53;;;10.80;1.00;;;;;;4848733;29;20248;-67
2023/01/08 00:33:17;;;;;;;2.30;2.10;;;10.80;1.00;;;;;;4857346;29;20210;-65
2023/01/08 00:35:44;;;;;;;3.53;2.30;;;10.80;1.00;;;;;;4857960;29;20210;-66
2023/01/08 00:38:11;;;;;;;2.57;2.27;;;10.80;1.00;;;;;;4862985;29;20807;-66
2023/01/08 00:40:39;;;;;;;3.60;2.30;;;10.80;1.00;;;;;;4849128;29;20687;-66
2023/01/08 00:43:07;;;;;;;2.70;2.43;;;10.70;1.00;;;;;;4848084;29;20214;-67
2023/01/08 00:45:34;;;;;;;4.10;2.70;;;10.70;1.00;;;;;;4854461;29;20292;-65
2023/01/08 00:48:01;;;;;;;3.50;2.67;;;10.70;1.00;;;;;;4871056;29;20202;-66
2023/01/08 00:50:28;;;;;;;6.07;2.10;;;10.70;1.00;;;;;;4849067;29;20227;-66
2023/01/08 00:52:55;;;;;;;2.93;2.30;;;10.60;1.00;;;;;;4855427;29;20578;-66
2023/01/08 00:55:22;;;;;;;2.37;2.10;;;10.70;1.00;;;;;;4857558;29;20676;-68
2023/01/08 00:57:49;;;;;;;3.37;2.40;;;10.70;1.00;;;;;;4862652;29;21053;-67
2023/01/08 01:00:16;;;;;;;3.03;2.57;;;10.70;1.00;;;;;;4844604;29;20234;-66
2023/01/08 01:02:43;;;;;;;2.83;2.40;;;10.70;1.00;;;;;;4855155;29;21112;-67
2023/01/08 01:05:14;;;;;;;2.57;2.30;;;10.70;1.00;;;;;;4864027;29;20816;-67
2023/01/08 01:07:42;;;;;;;3.63;2.20;;;10.60;1.00;;;;;;4857379;29;20594;-67
2023/01/08 01:10:11;;;;;;;2.43;2.23;;;10.60;1.00;;;;;;4856617;29;20203;-67
2023/01/08 01:12:38;;;;;;;2.30;2.07;;;10.60;1.00;;;;;;4857924;29;20250;-67
2023/01/08 01:15:08;;;;;;;2.60;2.00;;;10.60;1.00;;;;;;4856554;29;20198;-67
2023/01/08 01:17:38;;;;;;;2.33;2.03;;;10.70;1.00;;;;;;4855585;29;20194;-67
2023/01/08 01:20:07;;;;;;;4.10;2.17;;;10.60;1.00;;;;;;4870380;29;20299;-66
2023/01/08 01:22:34;;;;;;;2.97;2.20;;;10.60;1.00;;;;;;4848885;29;20211;-68
2023/01/08 01:25:01;;;;;;;2.93;2.33;;;10.50;1.00;;;;;;4870793;29;20205;-65
2023/01/08 01:27:28;;;;;;;2.57;1.80;;;10.50;1.00;;;;;;4868339;29;20627;-66
2023/01/08 01:29:56;;;;;;;2.60;2.00;;;10.50;1.00;;;;;;4856390;29;20214;-65
2023/01/08 01:32:23;;;;;;;2.27;1.90;;;10.50;1.00;;;;;;4839248;29;20726;-65
2023/01/08 01:34:50;;;;;;;2.77;2.20;;;10.60;1.00;;;;;;4871050;29;20318;-65
2023/01/08 01:37:17;;;;;;;2.40;1.87;;;10.60;1.00;;;;;;4855651;29;20210;-68
2023/01/08 01:39:45;;;;;;;3.20;1.73;;;10.60;1.00;;;;;;4860440;29;20202;-69
2023/01/08 01:44:59;;;;;;;1.93;1.80;;;10.60;1.00;;;;;;4856578;29;20206;-68
2023/01/08 01:47:38;;;;;;;2.17;1.90;;;10.60;1.00;;;;;;4852684;29;20281;-69
2023/01/08 01:50:40;;;;;;;2.73;1.70;;;10.60;1.00;;;;;;4855536;29;20282;-68
2023/01/08 01:53:18;;;;;;;2.03;1.80;;;10.60;1.00;;;;;;4856866;29;20314;-68
2023/01/08 01:55:49;;;;;;;2.63;1.67;;;10.50;1.00;;;;;;4846847;29;20246;-68
2023/01/08 01:58:23;;;;;;;1.77;1.67;;;10.50;1.00;;;;;;4864525;29;20206;-68
2023/01/08 02:00:52;;;;;;;2.40;1.90;;;10.50;1.00;;;;;;4839699;29;20207;-69
2023/01/08 02:03:25;;;;;;;2.00;1.77;;;10.50;1.00;;;;;;4869528;29;20194;-66
2023/01/08 02:06:10;;;;;;;1.87;1.70;;;10.60;1.00;;;;;;4855989;29;20237;-65
2023/01/08 02:08:44;;;;;;;1.70;1.50;;;10.50;1.00;;;;;;4856172;29;20285;-67
2023/01/08 02:11:36;;;;;;;3.07;1.80;;;10.50;1.00;;;;;;4857193;29;20292;-69
2023/01/08 02:14:29;;;;;;;3.20;1.67;;;10.50;1.00;;;;;;4846233;29;20321;-67
2023/01/08 02:17:11;;;;;;;2.07;1.70;;;10.40;1.00;;;;;;4852929;29;20596;-66
2023/01/08 02:19:48;;;;;;;2.27;1.67;;;10.30;1.00;;;;;;4838104;29;20198;-66
2023/01/08 02:22:47;;;;;;;2.30;1.70;;;10.40;1.00;;;;;;4868081;29;20849;-66
2023/01/08 02:25:42;;;;;;;2.00;1.70;;;10.40;1.00;;;;;;4841395;29;20639;-65
2023/01/08 02:28:12;;;;;;;2.10;1.73;;;10.50;1.00;;;;;;4852765;29;20969;-69
2023/01/08 02:30:40;;;;;;;2.60;1.70;;;10.50;1.00;;;;;;4856200;29;20249;-65
2023/01/08 02:33:07;;;;;;;2.70;1.63;;;10.50;1.00;;;;;;4872256;29;21976;-65
2023/01/08 02:35:44;;;;;;;1.60;1.50;;;10.50;1.00;;;;;;4873201;29;20197;-65
2023/01/08 02:38:14;;;;;;;2.03;1.67;;;10.50;1.00;;;;;;4849616;29;20209;-65
2023/01/08 02:41:08;;;;;;;2.53;1.77;;;10.50;1.00;;;;;;4871516;29;20197;-67
2023/01/08 02:43:43;;;;;;;2.03;1.70;;;10.50;1.00;;;;;;4875456;29;20293;-70
2023/01/08 02:46:16;;;;;;;3.63;1.70;;;10.60;1.00;;;;;;4859295;29;20207;-69
2023/01/08 02:49:09;;;;;;;2.13;1.83;;;10.60;1.00;;;;;;4875954;29;20203;-70
2023/01/08 02:51:44;;;;;;;2.50;1.63;;;10.70;1.00;;;;;;4853974;29;20208;-70
2023/01/08 02:54:16;;;;;;;3.67;1.80;;;10.70;1.00;;;;;;4860424;29;20340;-69
2023/01/08 02:56:48;;;;;;;3.00;1.90;;;10.60;1.00;;;;;;4861750;29;20206;-70
2023/01/08 02:59:17;;;;;;;2.00;1.70;;;10.60;1.00;;;;;;4860530;29;20218;-69
2023/01/08 03:01:45;;;;;;;2.57;1.90;;;10.60;1.00;;;;;;4842364;29;20212;-69
2023/01/08 03:04:20;;;;;;;3.07;1.73;;;10.60;1.00;;;;;;4874897;29;20205;-69
2023/01/08 03:06:48;;;;;;;2.03;1.70;;;10.60;1.00;;;;;;4853564;29;20205;-70
2023/01/08 03:09:16;;;;;;;3.33;1.87;;;10.60;1.00;;;;;;4876640;29;20268;-70
2023/01/08 03:11:51;;;;;;;2.87;1.83;;;10.60;1.00;;;;;;4838975;29;20197;-71
2023/01/08 03:14:30;;;;;;;2.70;2.00;;;10.60;1.00;;;;;;4876910;29;20252;-71
2023/01/08 03:17:05;;;;;;;3.13;1.80;;;10.60;1.00;;;;;;4876076;29;20205;-70
2023/01/08 03:19:35;;;;;;;2.77;1.97;;;10.60;1.00;;;;;;4859030;29;20266;-70
2023/01/08 03:22:05;;;;;;;5.13;2.30;;;10.50;1.00;;;;;;4844786;29;20265;-70
2023/01/08 03:24:36;;;;;;;2.60;1.70;;;10.60;1.00;;;;;;4861677;29;20285;-70
2023/01/08 03:27:05;;;;;;;1.80;1.60;;;10.50;1.00;;;;;;4859827;29;20828;-71
2023/01/08 03:29:34;;;;;;;2.10;1.90;;;10.50;1.00;;;;;;4875184;29;20229;-68
2023/01/08 03:32:05;;;;;;;2.33;2.10;;;10.50;1.00;;;;;;4874979;29;20246;-66
2023/01/08 03:34:37;;;;;;;6.77;2.07;;;10.50;1.00;;;;;;4858872;29;20290;-66
2023/01/08 03:37:06;;;;;;;2.37;2.13;;;10.60;1.00;;;;;;4860277;29;20194;-66
2023/01/08 03:39:42;;;;;;;3.03;1.70;;;10.60;1.00;;;;;;4859888;29;20254;-66
2023/01/08 03:42:13;;;;;;;3.27;1.90;;;10.60;1.00;;;;;;4875736;29;20269;-66
2023/01/08 03:44:41;;;;;;;3.27;1.87;;;10.50;1.00;;;;;;4859730;29;20241;-67
2023/01/08 03:47:10;;;;;;;2.20;2.00;;;10.50;1.00;;;;;;4858292;29;20638;-66
2023/01/08 03:49:39;;;;;;;2.30;1.70;;;10.50;1.00;;;;;;4875999;29;20228;-68
2023/01/08 03:52:06;;;;;;;2.43;1.77;;;10.50;1.00;;;;;;4841082;29;20669;-73
2023/01/08 03:54:35;;;;;;;3.27;1.83;;;10.50;1.00;;;;;;4875495;29;20217;-66
2023/01/08 03:57:02;;;;;;;2.97;1.90;;;10.50;1.00;;;;;;4859397;29;20220;-72
2023/01/08 03:59:29;;;;;;;2.27;1.80;;;10.50;1.00;;;;;;4875474;29;20197;-67
2023/01/08 04:01:56;;;;;;;2.73;1.83;;;10.50;1.00;;;;;;4849092;29;20194;-67
2023/01/08 04:04:23;;;;;;;4.10;2.10;;;10.50;1.00;;;;;;4876038;29;20198;-67
2023/01/08 04:06:52;;;;;;;5.80;1.87;;;10.50;1.00;;;;;;4874374;29;20198;-67
2023/01/08 04:09:19;;;;;;;2.97;1.80;;;10.50;1.00;;;;;;4875625;29;20734;-68
2023/01/08 04:11:46;;;;;;;1.83;1.73;;;10.50;1.00;;;;;;4874971;29;20789;-66
2023/01/08 04:14:13;;;;;;;4.33;1.67;;;10.50;1.00;;;;;;4875041;29;20726;-67
2023/01/08 04:16:40;;;;;;;3.63;1.80;;;10.50;1.00;;;;;;4872324;29;20201;-67
2023/01/08 04:19:09;;;;;;;3.27;1.70;;;10.50;1.00;;;;;;4851219;29;20808;-66
2023/01/08 04:21:35;;;;;;;2.47;1.90;;;10.50;1.00;;;;;;4873897;29;20197;-66
2023/01/08 04:24:03;;;;;;;4.17;1.80;;;10.50;1.00;;;;;;4858777;29;20718;-67
2023/01/08 04:26:30;;;;;;;3.00;2.13;;;10.40;1.00;;;;;;4874934;29;20201;-66
2023/01/08 04:28:57;;;;;;;3.67;1.87;;;10.50;1.00;;;;;;4873270;29;20253;-69
2023/01/08 04:31:24;;;;;;;2.93;1.70;;;10.40;1.00;;;;;;4874274;29;20301;-71
2023/01/08 04:33:51;;;;;;;2.40;1.70;;;10.50;1.00;;;;;;4858819;29;20219;-66
2023/01/08 04:36:18;;;;;;;2.60;1.70;;;10.50;1.00;;;;;;4861982;29;20971;-67
2023/01/08 04:38:45;;;;;;;2.13;1.70;;;10.40;1.00;;;;;;4876901;29;20193;-67
2023/01/08 04:41:12;;;;;;;2.47;1.50;;;10.40;1.00;;;;;;4874725;29;20285;-66
2023/01/08 04:43:39;;;;;;;1.80;1.50;;;10.40;1.00;;;;;;4859320;29;20226;-66
2023/01/08 04:46:06;;;;;;;1.63;1.53;;;10.40;1.00;;;;;;4842549;29;20258;-67
2023/01/08 04:48:33;;;;;;;1.90;1.60;;;10.50;1.00;;;;;;4866059;29;20287;-66
2023/01/08 04:51:02;;;;;;;2.23;1.50;;;10.40;1.00;;;;;;4874953;29;20233;-68
2023/01/08 04:53:31;;;;;;;2.10;1.67;;;10.40;1.00;;;;;;4873974;29;20251;-66
2023/01/08 04:56:06;;;;;;;2.00;1.50;;;10.40;1.00;;;;;;4874746;29;20270;-66
2023/01/08 04:58:35;;;;;;;2.20;1.70;;;10.40;1.00;;;;;;4856625;29;20193;-66
2023/01/08 05:01:13;;;;;;;1.60;1.50;;;10.40;1.00;;;;;;4872926;29;20217;-67
2023/01/08 05:03:40;;;;;;;2.30;1.60;;;10.40;1.00;;;;;;4858566;29;20296;-67
2023/01/08 05:06:07;;;;;;;1.63;1.53;;;10.40;1.00;;;;;;4857464;29;20205;-67
2023/01/08 05:08:34;;;;;;;1.70;1.60;;;10.40;1.00;;;;;;4874854;29;20202;-65
2023/01/08 05:11:01;;;;;;;2.00;1.60;;;10.50;1.00;;;;;;4873808;29;20230;-66
2023/01/08 05:13:29;;;;;;;2.07;1.50;;;10.50;1.00;;;;;;4875454;29;20293;-67
2023/01/08 05:16:00;;;;;;;1.53;1.43;;;10.50;1.00;;;;;;4869358;29;20245;-67
2023/01/08 05:18:28;;;;;;;2.10;1.50;;;10.50;1.00;;;;;;4850280;29;20678;-66
2023/01/08 05:21:03;;;;;;;1.63;1.50;;;10.50;1.00;;;;;;4865526;29;21160;-67
2023/01/08 05:23:32;;;;;;;1.60;1.50;;;10.50;1.00;;;;;;4873694;29;20226;-67
2023/01/08 05:26:01;;;;;;;1.50;1.40;;;10.50;1.00;;;;;;4857099;29;20293;-66
2023/01/08 05:28:29;;;;;;;1.87;1.40;;;10.50;1.00;;;;;;4850542;29;20205;-66
2023/01/08 05:30:56;;;;;;;2.37;1.63;;;10.60;1.00;;;;;;4874127;29;20276;-66
2023/01/08 05:33:24;;;;;;;1.57;1.40;;;10.60;1.00;;;;;;4873905;29;20276;-66
2023/01/08 05:35:51;;;;;;;1.40;1.30;;;10.60;1.00;;;;;;4850741;29;20218;-71
2023/01/08 05:38:18;;;;;;;2.40;1.40;;;10.60;1.00;;;;;;4873065;29;20706;-66
2023/01/08 05:40:46;;;;;;;1.47;1.37;;;10.60;1.00;;;;;;4873166;29;20206;-68
2023/01/08 05:43:13;;;;;;;3.37;1.53;;;10.60;1.00;;;;;;4871837;29;20278;-66
2023/01/08 05:45:39;;;;;;;1.70;1.43;;;10.60;1.00;;;;;;4872000;29;20201;-66
2023/01/08 05:48:07;;;;;;;1.57;1.30;;;10.60;1.00;;;;;;4863926;29;20677;-66
2023/01/08 05:50:34;;;;;;;1.50;1.23;;;10.60;1.00;;;;;;4874235;29;20217;-66
2023/01/08 05:53:06;;;;;;;2.27;2.07;;;10.60;1.00;;;;;;4873042;29;20225;-66
2023/01/08 05:55:33;;;;;;;2.03;1.57;;;10.60;1.00;;;;;;4855700;29;20217;-66
2023/01/08 05:58:02;;;;;;;2.03;1.50;;;10.50;1.00;;;;;;4856342;29;20254;-66
2023/01/08 06:00:29;;;;;;;1.97;1.37;;;10.50;1.00;;;;;;4872265;29;20272;-67
2023/01/08 06:02:56;;;;;;;1.70;1.30;;;10.50;1.00;;;;;;4872886;29;20201;-67
2023/01/08 06:05:25;;;;;;;1.93;1.23;;;10.50;1.00;;;;;;4865920;29;20662;-66
2023/01/08 06:07:51;;;;;;;1.83;1.53;;;10.50;1.00;;;;;;4873906;29;20209;-66
2023/01/08 06:10:18;;;;;;;1.83;1.20;;;10.40;1.00;;;;;;4874208;29;20214;-67
2023/01/08 06:12:46;;;;;;;1.57;1.23;;;10.40;1.00;;;;;;4873085;29;20217;-67
2023/01/08 06:15:13;;;;;;;1.10;1.00;;;10.40;1.00;;;;;;4867874;29;20293;-68
2023/01/08 06:17:41;;;;;;;1.83;1.10;;;10.40;1.00;;;;;;4870683;29;20225;-67
2023/01/08 06:20:09;;;;;;;1.47;1.20;;;10.50;1.00;;;;;;4873555;29;20268;-66
2023/01/08 06:22:36;;;;;;;1.20;1.10;;;10.50;1.00;;;;;;4871800;29;20576;-68
2023/01/08 06:25:03;;;;;;;1.53;1.10;;;10.50;1.00;;;;;;4873498;29;20209;-66
2023/01/08 06:27:30;;;;;;;1.60;1.20;;;10.50;1.00;;;;;;4871861;29;20205;-66
2023/01/08 06:29:57;;;;;;;1.97;1.10;;;10.50;1.00;;;;;;4871503;29;20222;-66
2023/01/08 06:32:24;;;;;;;1.07;0.97;;;10.50;1.00;;;;;;4873878;29;20324;-66
2023/01/08 06:34:51;;;;;;;2.27;1.20;;;10.50;1.00;;;;;;4857858;29;20233;-66
2023/01/08 06:37:18;;;;;;;2.00;1.07;;;10.50;1.00;;;;;;4861958;29;20209;-66
2023/01/08 06:39:45;;;;;;;3.17;1.13;;;10.40;1.00;;;;;;4873656;29;20198;-66
2023/01/08 06:42:12;;;;;;;1.07;1.07;;;10.40;1.00;;;;;;4849501;29;20626;-66
2023/01/08 06:44:39;;;;;;;1.93;1.30;;;10.40;1.00;;;;;;4848036;29;20201;-66
2023/01/08 06:47:06;;;;;;;2.30;1.30;;;10.40;1.00;;;;;;4873543;29;20205;-66
2023/01/08 06:49:33;;;;;;;3.90;1.40;;;10.40;1.00;;;;;;4856169;29;20212;-65
2023/01/08 06:52:00;;;;;;;1.50;1.20;;;10.30;1.00;;;;;;4856033;29;20459;-65
2023/01/08 06:54:27;;;;;;;1.73;1.23;;;10.30;1.00;;;;;;4872516;29;20228;-65
2023/01/08 06:56:54;;;;;;;1.60;1.30;;;10.20;1.00;;;;;;4874023;29;20221;-65
2023/01/08 06:59:21;;;;;;;1.77;1.20;;;10.10;1.00;;;;;;4856474;29;20276;-66
2023/01/08 07:01:48;;;;;;;1.30;1.20;;;10.10;1.00;;;;;;4857245;29;20193;-66
2023/01/08 07:04:16;;;;;;;1.23;1.13;;;10.00;1.00;;;;;;4856818;29;20916;-65
2023/01/08 07:06:44;;;;;;;1.33;0.97;;;10.00;1.00;;;;;;4858120;29;20277;-69
2023/01/08 07:09:14;;;;;;;1.30;1.10;;;9.90;1.00;;;;;;4872901;29;20240;-67
2023/01/08 07:11:41;;;;;;;1.57;1.10;;;10.00;1.00;;;;;;4872697;29;20342;-68
2023/01/08 07:14:08;;;;;;;1.20;1.10;;;9.90;1.00;;;;;;4872729;29;20693;-66
2023/01/08 07:16:36;;;;;;;1.30;1.20;;;9.90;1.00;;;;;;4874660;29;20198;-66
2023/01/08 07:19:03;;;;;;;1.30;1.20;;;9.80;1.00;;;;;;4871412;29;20202;-67
2023/01/08 07:21:30;;;;;;;1.87;1.60;;;9.80;1.00;;;;;;4873252;29;20194;-66
2023/01/08 07:23:58;;;;;;;1.47;1.17;;;9.80;1.00;;;;;;4857033;29;20714;-66
2023/01/08 07:26:25;;;;;;;1.23;1.00;;;9.80;1.00;;;;;;4857310;29;20197;-67
2023/01/08 07:28:52;;;;;;;1.30;1.10;;;9.90;1.00;;;;;;4862093;29;20202;-66
2023/01/08 07:31:19;;;;;;;1.10;1.00;;;9.90;1.00;;;;;;4873465;29;20240;-68
2023/01/08 07:33:47;;;;;;;2.63;1.63;;;9.90;1.00;;;;;;4846154;29;20222;-67
2023/01/08 07:36:14;;;;;;;1.27;1.17;;;9.90;1.00;;;;;;4858562;29;21267;-67
2023/01/08 07:38:42;;;;;;;2.40;1.03;;;9.80;1.00;;;;;;4874602;29;20701;-67
2023/01/08 07:41:09;;;;;;;1.67;1.00;;;9.80;1.00;;;;;;4861040;29;20603;-66
2023/01/08 07:43:36;;;;;;;1.13;1.03;;;9.90;1.00;;;;;;4852771;29;20201;-83
2023/01/08 07:46:03;;;;;;;1.10;0.90;;;10.00;1.00;;;;;;4844241;29;20205;-68
2023/01/08 07:48:30;;;;;;;1.30;1.10;;;10.00;1.00;;;;;;4859165;29;20212;-67
2023/01/08 07:51:06;;;;;;;1.63;0.90;;;10.00;1.00;;;;;;4859314;29;20197;-66
2023/01/08 07:53:35;;;;;;;2.70;2.37;;;10.10;1.00;;;;;;4875406;29;20262;-65
2023/01/08 07:56:04;;;;;;;5.97;2.70;;;10.10;1.00;;;;;;4860092;29;20296;-65
2023/01/08 07:58:32;;;;;;;5.60;4.43;;;10.10;1.00;;;;;;4859326;29;20194;-68
2023/01/08 08:00:59;;;;;;;2.93;2.27;;;10.10;1.00;;;;;;4841666;29;20750;-66
2023/01/08 08:03:26;;;;;;;2.47;1.40;;;10.20;1.00;;;;;;4842523;29;20562;-66
2023/01/08 08:05:53;;;;;;;2.23;2.00;;;10.20;1.00;;;;;;4873907;29;20819;-67
2023/01/08 08:08:20;;;;;;;1.30;1.20;;;10.20;1.00;;;;;;4876216;29;20229;-67
2023/01/08 08:10:47;;;;;;;2.67;1.40;;;10.30;1.00;;;;;;4875328;29;20761;-67
2023/01/08 08:13:14;;;;;;;5.30;3.83;;;10.30;1.00;;;;;;4851331;29;20278;-67
2023/01/08 08:15:41;;;;;;;4.63;2.40;;;10.30;1.00;;;;;;4874070;29;20701;-65
2023/01/08 08:18:09;;;;;;;6.63;4.80;;;10.20;1.00;;;;;;4875667;29;20360;-65
2023/01/08 08:20:37;;;;;;;3.43;2.40;;;10.10;1.00;;;;;;4875128;29;20277;-66
2023/01/08 08:23:14;;;;;;;1.20;1.10;;;9.90;1.00;;;;;;4859447;29;20233;-69
2023/01/08 08:25:41;;;;;;;7.43;4.20;;;9.90;1.00;;;;;;4876481;29;20674;-67
2023/01/08 08:28:10;;;;;;;6.50;4.00;;;9.80;1.00;;;;;;4859135;29;20213;-65
2023/01/08 08:30:37;;;;;;;7.00;4.67;;;9.80;1.00;;;;;;4851539;29;20257;-66
2023/01/08 08:33:09;;;;;;;4.83;3.53;;;9.70;1.00;;;;;;4874949;29;20223;-71
2023/01/08 08:35:36;;;;;;;9.03;4.93;;;9.80;1.00;;;;;;4875523;29;20852;-66
2023/01/08 08:38:04;;;;;;;1.87;1.00;;;9.70;1.00;;;;;;4877619;29;20289;-67
2023/01/08 08:40:31;;;;;;;2.80;1.63;;;9.70;1.00;;;;;;4876521;29;20688;-66
2023/01/08 08:43:03;;;;;;;6.00;4.07;;;9.80;1.00;;;;;;4877583;29;20197;-65
2023/01/08 08:45:30;;;;;;;4.13;3.00;;;9.80;1.00;;;;;;4874469;29;20594;-68
2023/01/08 08:47:57;;;;;;;3.07;1.20;;;9.80;1.00;;;;;;4858361;29;20241;-68
2023/01/08 08:50:24;;;;;;;4.97;3.20;;;9.90;1.00;;;;;;4858090;29;20205;-66
2023/01/08 08:52:51;;;;;;;2.20;1.37;;;9.90;1.00;;;;;;4851188;29;20217;-64
2023/01/08 08:55:19;;;;;;;1.80;1.47;;;10.00;1.00;;;;;;4874033;29;20654;-65
2023/01/08 08:57:47;;;;;;;4.23;1.93;;;10.00;1.00;;;;;;4874570;29;20253;-66
2023/01/08 09:00:14;;;;;;;3.53;1.90;;;10.00;1.00;;;;;;4870446;29;20674;-67
2023/01/08 09:02:42;;;;;;;6.53;3.53;;;10.10;1.00;;;;;;4875475;29;20680;-65
2023/01/08 09:05:10;;;;;;;4.33;2.00;;;10.10;1.00;;;;;;4876019;29;20206;-66
2023/01/08 09:07:37;;;;;;;4.50;1.67;;;10.00;1.00;;;;;;4876073;29;20287;-66
2023/01/08 09:10:05;;;;;;;2.43;1.40;;;10.00;1.00;;;;;;4875106;29;20281;-65
2023/01/08 09:12:32;;;;;;;4.33;2.40;;;10.00;1.00;;;;;;4874236;29;20245;-70
2023/01/08 09:14:59;;;;;;;4.07;2.73;;;9.90;1.00;;;;;;4873480;29;20709;-65
2023/01/08 09:17:26;;;;;;;5.80;2.70;;;9.90;1.00;;;;;;4859598;29;20194;-66
2023/01/08 09:19:53;;;;;;;5.10;3.27;;;9.90;1.00;;;;;;4843831;29;20621;-67
2023/01/08 09:22:20;;;;;;;4.77;2.97;;;9.90;1.00;;;;;;4866322;29;20197;-67
2023/01/08 09:24:49;;;;;;;3.87;2.20;;;10.00;1.00;;;;;;4867358;29;20212;-65
2023/01/08 09:27:16;;;;;;;4.97;1.97;;;10.20;1.00;;;;;;4857386;29;20273;-68
2023/01/08 09:29:43;;;;;;;1.90;1.33;;;10.70;1.00;;;;;;4874427;29;20222;-64
2023/01/08 09:32:11;;;;;;;3.13;2.20;;;11.30;1.00;;;;;;4856527;29;20337;-67
2023/01/08 09:34:38;;;;;;;6.33;1.57;;;12.00;1.00;;;;;;4862828;29;20954;-65
2023/01/08 09:37:05;;;;;;;4.77;2.70;;;12.60;1.00;;;;;;4874494;29;20638;-65
2023/01/08 09:39:32;;;;;;;3.40;1.83;;;13.30;1.00;;;;;;4872654;29;20689;-65
2023/01/08 09:42:04;;;;;;;3.33;1.80;;;15.50;1.00;;;;;;4868273;29;20201;-65
2023/01/08 09:44:41;;;;;;;4.45;2.00;;;17.10;1.00;;;;;;4860796;29;20551;-66
2023/01/08 09:47:42;;;;;;;5.18;1.50;;;19.00;1.00;;;;;;4842771;29;20277;-66
2023/01/08 09:50:12;;;;;;;3.60;2.10;;;19.30;1.00;;;;;;4874474;29;20311;-66
2023/01/08 09:52:40;;;;;;;4.20;1.65;;;19.80;1.00;;;;;;4873262;29;20250;-66
2023/01/08 09:55:13;;;;;;;4.43;1.38;;;19.90;1.00;;;;;;4873541;29;20698;-65
2023/01/08 09:57:42;;;;;;;4.40;1.45;;;19.90;1.00;;;;;;4873641;29;20300;-69
2023/01/08 10:00:16;;;;;;;3.97;1.60;;;19.60;1.00;;;;;;4849457;29;20232;-66
2023/01/08 10:02:43;;;;;;;2.53;1.20;;;19.70;1.00;;;;;;4874667;29;20850;-66
2023/01/08 10:05:16;;;;;;;2.65;1.25;;;20.40;1.00;;;;;;4873125;29;20198;-67
2023/01/08 10:07:44;;;;;;;3.63;1.58;;;20.50;1.00;;;;;;4873050;29;20202;-66
2023/01/08 10:10:24;;;;;;;3.47;1.25;;;19.60;1.00;;;;;;4870596;29;20256;-67
2023/01/08 10:12:52;;;;;;;3.78;1.40;;;19.90;1.00;;;;;;4854551;29;20295;-66
2023/01/08 10:15:21;;;;;;;5.82;1.90;;;19.60;1.00;;;;;;4860544;29;20233;-66
2023/01/08 10:18:02;;;;;;;5.18;1.50;;;19.80;1.00;;;;;;4870109;29;20197;-65
2023/01/08 10:20:30;;;;;;;2.65;1.27;;;20.10;1.00;;;;;;4850383;29;20217;-65
2023/01/08 10:23:09;;;;;;;5.18;1.33;;;19.10;1.00;;;;;;4857455;29;20276;-68
2023/01/08 10:25:51;;;;;;;3.80;1.80;;;20.60;1.00;;;;;;4868813;29;20237;-66
2023/01/08 10:28:24;;;;;;;5.18;2.13;;;20.80;1.00;;;;;;4874481;29;20198;-66
2023/01/08 10:30:53;;;;;;;8.93;1.80;;;21.60;1.00;;;;;;4869954;29;20284;-66
2023/01/08 10:33:24;;;;;;;5.18;2.03;;;21.50;1.00;;;;;;4873651;29;20206;-67
2023/01/08 10:35:59;;;;;;;4.63;1.70;;;22.10;1.00;;;;;;4870117;29;20270;-67
2023/01/08 10:38:49;;;;;;;4.85;2.58;;;21.50;1.00;;;;;;4854366;29;20189;-66
2023/01/08 10:41:17;;;;;;;8.38;4.60;;;20.60;1.00;;;;;;4873562;29;20201;-66
2023/01/08 10:43:49;;;;;;;4.47;2.00;;;21.80;1.00;;;;;;4873126;29;20216;-67
2023/01/08 10:46:35;;;;;;;4.63;1.83;;;21.40;1.00;;;;;;4870504;29;20671;-67
2023/01/08 10:49:05;;;;;;;9.40;3.42;;;20.30;1.00;;;;;;4872699;29;20202;-67
2023/01/08 10:51:32;;;;;;;7.68;2.22;;;20.90;1.00;;;;;;4871276;29;20198;-67
2023/01/08 10:54:14;;;;;;;7.75;2.83;;;20.00;1.00;;;;;;4872530;29;20876;-65
2023/01/08 10:56:43;;;;;;;11.38;5.55;;;21.20;1.00;;;;;;4872986;29;20685;-66
2023/01/08 10:59:21;;;;;;;7.30;2.40;;;21.10;1.00;;;;;;4856123;29;20194;-66
2023/01/08 11:01:54;;;;;;;3.75;1.55;;;20.90;1.00;;;;;;4872058;29;20214;-65
2023/01/08 11:04:32;;;;;;;5.53;1.98;;;21.50;1.00;;;;;;4871429;29;20236;-65
2023/01/08 11:07:05;;;;;;;4.18;1.52;;;20.80;1.00;;;;;;4873975;29;20297;-66
2023/01/08 11:09:39;;;;;;;6.82;3.90;;;20.60;1.00;;;;;;4876916;29;20244;-67
2023/01/08 11:12:35;;;;;;;7.03;2.17;;;21.10;1.00;;;;;;4873133;29;20261;-66
2023/01/08 11:15:24;;;;;;;3.42;1.50;;;21.30;1.00;;;;;;4875819;29;20299;-66
2023/01/08 11:17:51;;;;;;;5.80;2.90;;;19.70;1.00;;;;;;4875494;29;21338;-65
2023/01/08 11:20:20;;;;;;;5.80;2.80;;;18.70;1.00;;;;;;4876586;29;20225;-66
2023/01/08 11:22:47;;;;;;;7.63;3.85;;;18.80;1.00;;;;;;4876690;29;20228;-64
2023/01/08 11:25:28;;;;;;;6.65;3.97;;;18.80;1.00;;;;;;4876811;29;20217;-65
2023/01/08 11:27:56;;;;;;;7.85;2.88;;;19.20;1.00;;;;;;4875781;29;20207;-65
2023/01/08 11:30:26;;;;;;;6.47;3.38;;;19.30;1.00;;;;;;4875140;29;20346;-65
2023/01/08 11:33:16;;;;;;;6.28;3.25;;;19.80;1.00;;;;;;4858997;29;20255;-66
2023/01/08 11:35:49;;;;;;;5.85;2.60;;;18.40;1.00;;;;;;4852413;29;20752;-65
2023/01/08 11:38:16;;;;;;;5.13;1.63;;;17.90;1.00;;;;;;4854448;29;20216;-65
2023/01/08 11:40:46;;;;;;;5.90;1.50;;;18.40;1.00;;;;;;4866470;29;20560;-65
2023/01/08 11:43:37;;;;;;;7.95;3.55;;;18.90;1.00;;;;;;4876373;29;20799;-65
2023/01/08 11:46:19;;;;;;;5.75;3.53;;;19.00;1.00;;;;;;4873937;29;20273;-64
2023/01/08 11:49:23;;;;;;;5.30;2.13;;;19.80;1.00;;;;;;4857733;29;20204;-66
2023/01/08 11:52:17;;;;;;;2.70;2.00;;;18.50;1.00;;;;;;4876335;29;20662;-65
2023/01/08 11:55:12;;;;;;;6.25;3.80;;;18.90;1.00;;;;;;4873676;29;20280;-66
2023/01/08 11:58:12;;;;;;;8.68;3.30;;;18.50;1.00;;;;;;4874665;29;20590;-65
2023/01/08 12:01:01;;;;;;;4.35;2.78;;;18.80;1.00;;;;;;4873326;29;20221;-66
2023/01/08 12:03:50;;;;;;;4.15;3.45;;;18.90;1.00;;;;;;4836298;29;20611;-66
2023/01/08 12:06:23;;;;;;;7.43;1.95;;;18.20;1.00;;;;;;4851682;29;20401;-66
2023/01/08 12:09:09;;;;;;;6.18;2.65;;;17.70;1.00;;;;;;4852166;29;20332;-67
2023/01/08 12:11:51;;;;;;;3.58;1.67;;;17.60;1.00;;;;;;4874340;29;20201;-66
2023/01/08 12:14:29;;;;;;;2.67;1.23;;;17.70;1.00;;;;;;4872916;29;20604;-68
2023/01/08 12:17:21;;;;;;;3.90;1.27;;;18.00;1.00;;;;;;4874881;29;20300;-65
2023/01/08 12:20:02;;;;;;;5.47;2.47;;;18.30;1.00;;;;;;4873538;29;20231;-66
2023/01/08 12:23:23;;;;;;;4.78;3.13;;;18.30;1.00;;;;;;4873571;29;20340;-69
2023/01/08 12:26:16;;;;;;;3.60;2.03;;;16.30;1.00;;;;;;4820902;29;20707;-65
2023/01/08 12:28:52;;;;;;;2.67;1.73;;;15.00;1.00;;;;;;4876545;29;20659;-65
2023/01/08 12:31:46;;;;;;;3.92;1.48;;;14.30;1.00;;;;;;4875956;29;20241;-65
2023/01/08 12:34:38;;;;;;;2.10;1.50;;;13.50;1.00;;;;;;4853667;29;20202;-66
2023/01/08 12:37:33;;;;;;;2.22;1.10;;;13.20;1.00;;;;;;4876391;29;20216;-66
2023/01/08 12:40:13;;;;;;;4.07;1.90;;;13.10;1.00;;;;;;4853288;29;20546;-66
2023/01/08 12:42:43;;;;;;;4.53;1.80;;;12.90;1.00;;;;;;4874373;29;20569;-66
2023/01/08 12:45:39;;;;;;;5.63;3.37;;;12.80;1.00;;;;;;4875260;29;20197;-75
2023/01/08 12:48:07;;;;;;;1.67;1.40;;;12.70;1.00;;;;;;4876440;29;20284;-67
2023/01/08 12:50:41;;;;;;;2.23;1.23;;;12.60;1.00;;;;;;4878664;29;20277;-68
2023/01/08 12:53:36;;;;;;;2.27;1.03;;;12.70;1.00;;;;;;4840720;29;20212;-70
2023/01/08 12:56:30;;;;;;;2.90;1.40;;;12.70;1.00;;;;;;4863977;29;20282;-68
2023/01/08 12:59:12;;;;;;;3.33;1.80;;;12.90;1.00;;;;;;4836731;29;20213;-73
2023/01/08 13:02:16;;;;;;;1.20;1.10;;;12.80;1.00;;;;;;4855918;29;20210;-68
2023/01/08 13:04:46;;;;;;;2.43;1.80;;;12.80;1.00;;;;;;4877830;29;20650;-70
2023/01/08 13:07:29;;;;;;;2.50;0.90;;;12.80;1.00;;;;;;4851475;29;20293;-67
2023/01/08 13:10:07;;;;;;;2.00;1.30;;;13.10;1.00;;;;;;4877614;29;20237;-70
2023/01/08 13:12:36;;;;;;;1.57;1.43;;;13.40;1.00;;;;;;4866308;29;20202;-66
2023/01/08 13:15:05;;;;;;;2.87;1.80;;;13.60;1.00;;;;;;4874755;29;20288;-66
2023/01/08 13:17:33;;;;;;;2.30;1.23;;;13.90;1.00;;;;;;4874455;29;20246;-72
2023/01/08 13:20:03;;;;;;;1.37;1.20;;;13.60;1.00;;;;;;4874146;29;20292;-66
2023/01/08 13:22:34;;;;;;;2.13;0.90;;;12.80;1.00;;;;;;4875231;29;20217;-67
2023/01/08 13:25:35;;;;;;;2.67;1.23;;;12.50;1.00;;;;;;4874900;29;20210;-66